createdAt,value
2023-01-11T00:00:18.659Z,5.20
2023-01-11T00:01:52.526Z,5.18
2023-01-11T00:03:25.727Z,5.22
2023-01-11T00:04:58.984Z,5.23
2023-01-11T00:06:33.739Z,5.25
2023-01-11T00:08:06.585Z,5.21
2023-01-11T00:09:39.755Z,5.17
2023-01-11T00:11:16.669Z,5.08
2023-01-11T00:12:50.084Z,5.10
2023-01-11T00:14:23.299Z,5.11
2023-01-11T00:15:56.425Z,5.13
2023-01-11T00:17:30.045Z,5.15
2023-01-11T00:19:03.352Z,5.16
2023-01-11T00:20:36.696Z,5.20
2023-01-11T00:22:11.169Z,5.23
2023-01-11T00:23:44.357Z,5.26
2023-01-11T00:25:16.897Z,5.27
2023-01-11T00:26:50.405Z,5.27
2023-01-11T00:28:23.480Z,5.29
2023-01-11T00:29:56.949Z,5.32
2023-01-11T00:31:30.307Z,5.29
2023-01-11T00:33:02.565Z,5.25
2023-01-11T00:34:35.836Z,5.23
2023-01-11T00:36:09.022Z,5.23
2023-01-11T00:37:43.739Z,5.25
2023-01-11T00:39:16.950Z,5.27
2023-01-11T00:40:49.071Z,5.28
2023-01-11T00:42:39.418Z,5.27
2023-01-11T00:44:30.839Z,5.25
2023-01-11T00:46:17.860Z,5.22
2023-01-11T00:48:01.017Z,5.23
2023-01-11T00:49:33.561Z,5.21
2023-01-11T00:51:06.879Z,5.22
2023-01-11T00:52:38.983Z,5.22
2023-01-11T00:54:13.762Z,5.23
2023-01-11T00:55:47.272Z,5.26
2023-01-11T00:57:19.684Z,5.28
2023-01-11T00:58:52.806Z,5.31
2023-01-11T01:00:26.185Z,5.35
2023-01-11T01:01:59.844Z,5.30
2023-01-11T01:03:32.985Z,5.27
2023-01-11T01:05:05.904Z,5.26
2023-01-11T01:06:39.074Z,5.28
2023-01-11T01:08:12.532Z,5.29
2023-01-11T01:09:47.087Z,5.28
2023-01-11T01:11:20.319Z,5.27
2023-01-11T01:13:11.061Z,5.26
2023-01-11T01:14:45.076Z,5.24
2023-01-11T01:16:19.017Z,5.25
2023-01-11T01:17:54.164Z,5.27
2023-01-11T01:19:28.098Z,5.27
2023-01-11T01:21:01.596Z,5.28
2023-01-11T01:22:33.806Z,5.29
2023-01-11T01:24:07.536Z,5.28
2023-01-11T01:25:41.996Z,5.28
2023-01-11T01:27:18.015Z,5.27
2023-01-11T01:28:51.437Z,5.27
2023-01-11T01:30:24.597Z,5.28
2023-01-11T01:31:57.694Z,5.24
2023-01-11T01:33:31.180Z,5.24
2023-01-11T01:35:04.300Z,5.25
2023-01-11T01:36:37.579Z,5.27
2023-01-11T01:38:10.682Z,5.23
2023-01-11T01:39:42.972Z,5.24
2023-01-11T01:41:17.723Z,5.24
2023-01-11T01:42:55.232Z,5.24
2023-01-11T01:44:56.870Z,5.27
2023-01-11T01:46:31.878Z,5.28
2023-01-11T01:48:06.897Z,5.26
2023-01-11T01:49:40.051Z,5.29
2023-01-11T01:51:17.972Z,5.31
2023-01-11T01:52:55.589Z,5.35
2023-01-11T01:54:33.044Z,5.36
2023-01-11T01:56:11.276Z,5.36
2023-01-11T01:57:46.629Z,5.34
2023-01-11T01:59:21.013Z,5.24
2023-01-11T02:00:54.558Z,5.18
2023-01-11T02:02:26.863Z,5.14
2023-01-11T02:04:00.808Z,5.10
2023-01-11T02:05:33.900Z,5.12
2023-01-11T02:07:11.852Z,5.16
2023-01-11T02:08:49.464Z,5.18
2023-01-11T02:10:23.800Z,5.21
2023-01-11T02:11:57.664Z,5.23
2023-01-11T02:13:46.008Z,5.27
2023-01-11T02:15:22.625Z,5.28
2023-01-11T02:16:56.640Z,5.27
2023-01-11T02:18:29.777Z,5.25
2023-01-11T02:20:13.776Z,5.25
2023-01-11T02:22:04.115Z,5.18
2023-01-11T02:24:04.574Z,5.19
2023-01-11T02:26:06.853Z,5.25
2023-01-11T02:28:00.099Z,5.31
2023-01-11T02:29:44.923Z,5.33
2023-01-11T02:31:30.112Z,5.36
2023-01-11T02:33:14.291Z,5.36
2023-01-11T02:34:54.748Z,5.36
2023-01-11T02:36:34.966Z,5.32
2023-01-11T02:38:15.626Z,5.19
2023-01-11T02:40:00.553Z,5.17
2023-01-11T02:41:53.349Z,5.16
2023-01-11T02:43:50.114Z,5.20
2023-01-11T02:45:37.175Z,5.17
2023-01-11T02:47:18.424Z,5.17
2023-01-11T02:49:01.198Z,5.18
2023-01-11T02:50:42.733Z,5.19
2023-01-11T02:52:21.366Z,5.22
2023-01-11T02:53:58.185Z,5.17
2023-01-11T02:55:37.620Z,5.13
2023-01-11T02:57:11.487Z,5.12
2023-01-11T02:58:49.004Z,5.15
2023-01-11T03:00:23.127Z,5.18
2023-01-11T03:01:56.598Z,5.20
2023-01-11T03:03:29.603Z,5.24
2023-01-11T03:05:02.840Z,5.25
2023-01-11T03:06:36.615Z,5.24
2023-01-11T03:08:25.374Z,5.26
2023-01-11T03:10:13.139Z,5.31
2023-01-11T03:12:21.803Z,5.32
2023-01-11T03:14:05.947Z,5.28
2023-01-11T03:15:53.854Z,5.27
2023-01-11T03:17:42.600Z,5.28
2023-01-11T03:19:25.438Z,5.31
2023-01-11T03:21:08.093Z,5.31
2023-01-11T03:22:51.049Z,5.37
2023-01-11T03:24:32.198Z,5.38
2023-01-11T03:26:19.083Z,5.37
2023-01-11T03:27:55.824Z,5.35
2023-01-11T03:29:35.366Z,5.32
2023-01-11T03:31:14.331Z,5.24
2023-01-11T03:32:49.896Z,5.15
2023-01-11T03:34:32.654Z,5.15
2023-01-11T03:36:15.857Z,5.12
2023-01-11T03:37:55.800Z,5.12
2023-01-11T03:39:35.235Z,5.11
2023-01-11T03:41:13.913Z,5.11
2023-01-11T03:43:09.388Z,5.14
2023-01-11T03:44:50.018Z,5.06
2023-01-11T03:46:27.610Z,5.04
2023-01-11T03:48:02.934Z,5.04
2023-01-11T03:49:42.713Z,5.10
2023-01-11T03:51:20.317Z,5.13
2023-01-11T03:52:56.544Z,5.16
2023-01-11T03:54:33.332Z,5.15
2023-01-11T03:56:11.667Z,5.17
2023-01-11T03:57:51.555Z,5.18
2023-01-11T03:59:24.925Z,5.18
2023-01-11T04:01:00.609Z,5.17
2023-01-11T04:02:35.782Z,5.12
2023-01-11T04:04:09.060Z,5.18
2023-01-11T04:05:44.090Z,5.21
2023-01-11T04:07:18.733Z,5.23
2023-01-11T04:08:51.465Z,5.24
2023-01-11T04:10:24.667Z,5.26
2023-01-11T04:11:57.797Z,5.29
2023-01-11T04:13:31.084Z,5.28
2023-01-11T04:15:05.527Z,5.28
2023-01-11T04:16:40.166Z,5.26
2023-01-11T04:18:12.271Z,5.25
2023-01-11T04:19:45.895Z,5.24
2023-01-11T04:21:18.242Z,5.21
2023-01-11T04:22:51.648Z,5.22
2023-01-11T04:24:24.790Z,5.23
2023-01-11T04:25:59.074Z,5.24
2023-01-11T04:27:32.364Z,5.24
2023-01-11T04:29:05.931Z,5.27
2023-01-11T04:30:39.198Z,5.27
2023-01-11T04:32:14.069Z,5.30
2023-01-11T04:33:47.308Z,5.30
2023-01-11T04:35:21.037Z,5.25
2023-01-11T04:36:54.215Z,5.29
2023-01-11T04:38:29.488Z,5.32
2023-01-11T04:40:02.913Z,5.31
2023-01-11T04:41:56.179Z,5.33
2023-01-11T04:43:29.514Z,5.34
2023-01-11T04:45:05.634Z,5.34
2023-01-11T04:46:37.862Z,5.29
2023-01-11T04:48:12.342Z,5.27
2023-01-11T04:49:45.777Z,5.23
2023-01-11T04:51:19.350Z,5.18
2023-01-11T04:52:53.280Z,5.19
2023-01-11T04:54:26.481Z,5.19
2023-01-11T04:56:01.424Z,5.21
2023-01-11T04:57:34.533Z,5.22
2023-01-11T04:59:07.731Z,5.26
2023-01-11T05:00:39.891Z,5.25
2023-01-11T05:02:13.086Z,5.21
2023-01-11T05:03:48.020Z,5.18
2023-01-11T05:05:21.173Z,5.14
2023-01-11T05:06:54.522Z,5.15
2023-01-11T05:08:29.279Z,5.20
2023-01-11T05:10:01.587Z,5.26
2023-01-11T05:11:34.741Z,5.30
2023-01-11T05:13:07.815Z,5.33
2023-01-11T05:14:41.281Z,5.34
2023-01-11T05:16:17.789Z,5.28
2023-01-11T05:17:51.054Z,5.22
2023-01-11T05:19:25.711Z,5.18
2023-01-11T05:20:58.007Z,5.18
2023-01-11T05:22:31.227Z,5.18
2023-01-11T05:24:07.246Z,5.18
2023-01-11T05:25:40.379Z,5.19
2023-01-11T05:27:13.749Z,5.19
2023-01-11T05:28:46.398Z,5.20
2023-01-11T05:30:19.741Z,5.16
2023-01-11T05:31:52.014Z,5.16
2023-01-11T05:33:25.475Z,5.20
2023-01-11T05:35:00.153Z,5.21
2023-01-11T05:36:33.315Z,5.22
2023-01-11T05:38:06.450Z,5.23
2023-01-11T05:39:39.654Z,5.24
2023-01-11T05:41:13.151Z,5.25
2023-01-11T05:42:47.537Z,5.24
2023-01-11T05:44:38.305Z,5.23
2023-01-11T05:46:10.746Z,5.21
2023-01-11T05:47:43.920Z,5.22
2023-01-11T05:49:17.176Z,5.22
2023-01-11T05:50:55.483Z,5.25
2023-01-11T05:52:28.659Z,5.26
2023-01-11T05:54:02.457Z,5.27
2023-01-11T05:55:35.618Z,5.27
2023-01-11T05:57:11.605Z,5.31
2023-01-11T05:58:45.001Z,5.29
2023-01-11T06:00:19.010Z,5.29
2023-01-11T06:01:52.089Z,5.29
2023-01-11T06:03:26.981Z,5.28
2023-01-11T06:05:00.199Z,5.27
2023-01-11T06:06:35.458Z,5.26
2023-01-11T06:08:08.607Z,5.25
2023-01-11T06:09:41.747Z,5.24
2023-01-11T06:11:14.980Z,5.21
2023-01-11T06:13:13.571Z,5.18
2023-01-11T06:14:46.742Z,5.11
2023-01-11T06:16:22.358Z,5.07
2023-01-11T06:17:55.546Z,5.06
2023-01-11T06:19:28.737Z,5.03
2023-01-11T06:21:01.426Z,4.96
2023-01-11T06:22:36.055Z,4.95
2023-01-11T06:24:09.280Z,4.95
2023-01-11T06:25:41.466Z,4.89
2023-01-11T06:27:14.524Z,4.88
2023-01-11T06:28:48.581Z,4.90
2023-01-11T06:30:21.896Z,4.99
2023-01-11T06:31:55.036Z,5.03
2023-01-11T06:33:29.714Z,5.02
2023-01-11T06:35:03.065Z,4.99
2023-01-11T06:36:36.252Z,4.97
2023-01-11T06:38:12.529Z,4.99
2023-01-11T06:39:45.642Z,5.01
2023-01-11T06:41:18.929Z,5.02
2023-01-11T06:42:52.096Z,5.02
2023-01-11T06:44:25.253Z,5.01
2023-01-11T06:45:58.970Z,5.03
2023-01-11T06:47:32.317Z,5.08
2023-01-11T06:49:05.448Z,5.10
2023-01-11T06:50:38.953Z,5.13
2023-01-11T06:52:12.154Z,5.15
2023-01-11T06:53:47.071Z,5.12
2023-01-11T06:55:20.141Z,5.09
2023-01-11T06:56:53.361Z,5.08
2023-01-11T06:58:27.455Z,5.10
2023-01-11T07:00:01.205Z,5.11
2023-01-11T07:01:34.556Z,5.12
2023-01-11T07:03:08.178Z,5.08
2023-01-11T07:04:41.403Z,5.14
2023-01-11T07:06:15.011Z,5.17
2023-01-11T07:07:48.360Z,5.19
2023-01-11T07:09:23.027Z,5.23
2023-01-11T07:10:56.367Z,5.25
2023-01-11T07:12:29.645Z,5.31
2023-01-11T07:14:02.766Z,5.35
2023-01-11T07:15:36.136Z,5.34
2023-01-11T07:17:09.314Z,5.36
2023-01-11T07:18:42.524Z,5.33
2023-01-11T07:20:16.323Z,5.33
2023-01-11T07:21:49.500Z,5.32
2023-01-11T07:23:22.647Z,5.34
2023-01-11T07:24:57.477Z,5.34
2023-01-11T07:26:31.460Z,5.29
2023-01-11T07:28:07.058Z,5.25
2023-01-11T07:29:40.239Z,5.26
2023-01-11T07:31:13.492Z,5.31
2023-01-11T07:32:46.617Z,5.38
2023-01-11T07:34:19.996Z,5.39
2023-01-11T07:35:53.228Z,5.44
2023-01-11T07:37:28.692Z,5.49
2023-01-11T07:39:02.575Z,5.53
2023-01-11T07:40:37.525Z,5.56
2023-01-11T07:42:29.840Z,5.58
2023-01-11T07:44:02.529Z,5.63
2023-01-11T07:45:45.323Z,5.62
2023-01-11T07:47:19.137Z,5.66
2023-01-11T07:48:52.414Z,5.70
2023-01-11T07:50:25.719Z,5.72
2023-01-11T07:51:59.056Z,5.76
2023-01-11T07:53:32.340Z,5.77
2023-01-11T07:55:06.083Z,5.78
2023-01-11T07:56:40.741Z,5.79
2023-01-11T07:58:14.670Z,5.80
2023-01-11T07:59:47.891Z,5.82
2023-01-11T08:01:21.032Z,5.90
2023-01-11T08:02:54.431Z,5.93
2023-01-11T08:04:28.183Z,5.98
2023-01-11T08:06:01.403Z,6.03
2023-01-11T08:07:34.643Z,6.04
2023-01-11T08:09:08.692Z,6.10
2023-01-11T08:10:42.251Z,6.15
2023-01-11T08:12:34.569Z,6.17
2023-01-11T08:14:25.183Z,6.18
2023-01-11T08:15:58.799Z,6.17
2023-01-11T08:17:33.989Z,6.16
2023-01-11T08:19:07.397Z,6.18
2023-01-11T08:20:41.129Z,6.24
2023-01-11T08:22:14.457Z,6.23
2023-01-11T08:23:47.993Z,6.19
2023-01-11T08:25:21.583Z,6.13
2023-01-11T08:26:54.758Z,6.08
2023-01-11T08:28:29.509Z,6.04
2023-01-11T08:30:02.612Z,6.05
2023-01-11T08:31:35.889Z,6.07
2023-01-11T08:33:09.261Z,6.12
2023-01-11T08:34:42.968Z,6.17
2023-01-11T08:36:16.581Z,6.25
2023-01-11T08:37:49.763Z,6.32
2023-01-11T08:39:22.902Z,6.36
2023-01-11T08:40:56.181Z,6.39
2023-01-11T08:42:29.335Z,6.42
2023-01-11T08:44:04.068Z,6.47
2023-01-11T08:45:37.176Z,6.52
2023-01-11T08:47:10.558Z,6.54
2023-01-11T08:48:43.976Z,6.55
2023-01-11T08:50:17.930Z,6.57
2023-01-11T08:51:53.572Z,6.56
2023-01-11T08:53:27.626Z,6.61
2023-01-11T08:55:00.758Z,6.59
2023-01-11T08:56:34.085Z,6.60
2023-01-11T08:58:07.177Z,6.66
2023-01-11T08:59:41.891Z,6.70
2023-01-11T09:01:15.082Z,6.72
2023-01-11T09:02:48.388Z,6.69
2023-01-11T09:04:25.165Z,6.74
2023-01-11T09:05:58.914Z,6.72
2023-01-11T09:07:32.064Z,6.72
2023-01-11T09:09:05.585Z,6.75
2023-01-11T09:10:39.493Z,6.77
2023-01-11T09:12:13.073Z,6.78
2023-01-11T09:13:47.314Z,6.83
2023-01-11T09:15:21.861Z,6.85
2023-01-11T09:16:55.442Z,6.86
2023-01-11T09:18:28.522Z,6.87
2023-01-11T09:20:01.901Z,6.91
2023-01-11T09:21:35.104Z,7.00
2023-01-11T09:23:08.276Z,7.07
2023-01-11T09:24:41.350Z,7.08
2023-01-11T09:26:15.185Z,7.11
2023-01-11T09:27:49.925Z,7.07
2023-01-11T09:29:23.182Z,7.16
2023-01-11T09:30:57.846Z,7.22
2023-01-11T09:32:31.149Z,7.33
2023-01-11T09:34:04.999Z,7.36
2023-01-11T09:35:41.960Z,7.25
2023-01-11T09:37:16.423Z,7.30
2023-01-11T09:38:50.330Z,7.38
2023-01-11T09:40:30.218Z,7.44
2023-01-11T09:42:18.359Z,7.57
2023-01-11T09:43:59.595Z,7.68
2023-01-11T09:45:34.160Z,7.81
2023-01-11T09:47:19.639Z,7.88
2023-01-11T09:48:58.251Z,7.95
2023-01-11T09:50:34.497Z,7.91
2023-01-11T09:52:20.186Z,7.82
2023-01-11T09:53:54.752Z,7.77
2023-01-11T09:55:35.149Z,7.70
2023-01-11T09:57:16.131Z,7.83
2023-01-11T09:59:09.850Z,7.93
2023-01-11T10:00:53.817Z,7.81
2023-01-11T10:02:39.159Z,7.88
2023-01-11T10:04:48.693Z,7.88
2023-01-11T10:06:28.664Z,7.88
2023-01-11T10:18:25.907Z,7.91
2023-01-11T10:18:28.494Z,7.90
2023-01-11T10:21:07.832Z,7.73
2023-01-11T10:22:47.108Z,7.69
2023-01-11T10:24:26.332Z,7.69
2023-01-11T10:26:06.033Z,7.65
2023-01-11T10:27:41.709Z,7.70
2023-01-11T10:29:39.883Z,7.74
2023-01-11T10:31:30.110Z,7.70
2023-01-11T10:33:18.507Z,7.70
2023-01-11T10:35:13.801Z,7.77
2023-01-11T10:37:11.002Z,7.95
2023-01-11T10:39:03.496Z,8.04
2023-01-11T10:41:01.876Z,8.16
2023-01-11T10:42:43.814Z,8.23
2023-01-11T10:44:26.899Z,8.30
2023-01-11T10:47:52.393Z,8.19
2023-01-11T10:49:40.409Z,7.89
2023-01-11T10:51:24.974Z,7.83
2023-01-11T10:53:07.778Z,7.85
2023-01-11T10:54:46.881Z,7.85
2023-01-11T10:56:28.218Z,7.89
2023-01-11T10:58:12.729Z,8.00
2023-01-11T11:00:01.032Z,8.03
2023-01-11T11:01:49.325Z,8.08
2023-01-11T11:03:48.039Z,8.14
2023-01-11T11:05:31.730Z,8.19
2023-01-11T11:07:12.488Z,8.18
2023-01-11T11:08:55.372Z,8.12
2023-01-11T11:10:35.441Z,8.11
2023-01-11T11:12:13.924Z,8.09
2023-01-11T11:13:55.934Z,8.05
2023-01-11T11:15:37.598Z,8.01
2023-01-11T11:17:19.420Z,8.00
2023-01-11T11:18:53.761Z,7.98
2023-01-11T11:20:30.925Z,7.94
2023-01-11T11:22:04.249Z,7.94
2023-01-11T11:23:40.182Z,7.96
2023-01-11T11:25:18.424Z,7.95
2023-01-11T11:27:04.260Z,7.92
2023-01-11T11:28:38.077Z,7.91
2023-01-11T11:30:12.545Z,7.92
2023-01-11T11:31:47.140Z,7.94
2023-01-11T11:33:23.512Z,7.98
2023-01-11T11:34:57.124Z,7.97
2023-01-11T11:36:42.605Z,7.98
2023-01-11T11:38:24.604Z,7.98
2023-01-11T11:39:59.430Z,7.96
2023-01-11T11:41:48.448Z,7.87
2023-01-11T11:43:23.966Z,7.81
2023-01-11T11:45:17.887Z,7.70
2023-01-11T11:47:01.509Z,7.74
2023-01-11T11:48:35.793Z,7.75
2023-01-11T11:50:43.840Z,7.71
2023-01-11T11:52:19.059Z,7.70
2023-01-11T11:53:55.788Z,7.64
2023-01-11T11:55:33.043Z,7.67
2023-01-11T11:57:16.888Z,7.64
2023-01-11T11:58:50.761Z,7.64
2023-01-11T12:00:28.032Z,7.65
2023-01-11T12:02:04.606Z,7.64
2023-01-11T12:03:37.754Z,7.61
2023-01-11T12:05:12.079Z,7.60
2023-01-11T12:06:47.945Z,7.61
2023-01-11T12:08:25.104Z,7.62
2023-01-11T12:10:02.308Z,7.62
2023-01-11T12:11:42.224Z,7.60
2023-01-11T12:13:28.705Z,7.59
2023-01-11T12:15:19.881Z,7.56
2023-01-11T12:16:53.055Z,7.50
2023-01-11T12:18:28.504Z,7.49
2023-01-11T12:20:01.939Z,7.43
2023-01-11T12:21:35.138Z,7.43
2023-01-11T12:23:16.847Z,7.43
2023-01-11T12:25:05.325Z,7.44
2023-01-11T12:26:47.104Z,7.41
2023-01-11T12:28:28.628Z,7.40
2023-01-11T12:30:14.675Z,7.43
2023-01-11T12:32:01.231Z,7.45
2023-01-11T12:33:45.721Z,7.45
2023-01-11T12:35:33.252Z,7.46
2023-01-11T12:37:17.354Z,7.44
2023-01-11T12:39:02.900Z,7.44
2023-01-11T12:40:41.614Z,7.44
2023-01-11T12:42:38.967Z,7.40
2023-01-11T12:47:33.629Z,7.43
2023-01-11T12:50:01.434Z,7.47
2023-01-11T12:51:52.010Z,7.49
2023-01-11T12:53:50.616Z,7.47
2023-01-11T12:55:36.995Z,7.45
2023-01-11T12:57:28.866Z,7.42
2023-01-11T12:59:11.545Z,7.38
2023-01-11T13:01:13.697Z,7.41
2023-01-11T13:03:08.420Z,7.40
2023-01-11T13:04:52.419Z,7.37
2023-01-11T13:06:36.124Z,7.29
2023-01-11T13:08:15.769Z,7.33
2023-01-11T13:10:04.032Z,7.31
2023-01-11T13:11:51.696Z,7.31
2023-01-11T13:13:34.858Z,7.27
2023-01-11T13:15:23.712Z,7.24
2023-01-11T13:17:06.499Z,7.15
2023-01-11T13:18:48.101Z,7.08
2023-01-11T13:20:34.258Z,7.08
2023-01-11T13:22:18.700Z,7.07
2023-01-11T13:23:57.118Z,7.07
2023-01-11T13:25:34.260Z,7.07
2023-01-11T13:27:14.163Z,7.03
2023-01-11T13:28:53.796Z,6.93
2023-01-11T13:30:28.451Z,6.83
2023-01-11T13:32:05.335Z,6.72
2023-01-11T13:33:42.048Z,6.72
2023-01-11T13:35:24.745Z,6.66
2023-01-11T13:37:23.634Z,6.62
2023-01-11T13:39:03.137Z,6.61
2023-01-11T13:40:40.838Z,6.59
2023-01-11T13:42:17.002Z,6.58
2023-01-11T13:43:57.774Z,6.49
2023-01-11T13:45:36.990Z,6.43
2023-01-11T13:47:16.239Z,6.48
2023-01-11T13:48:56.681Z,6.42
2023-01-11T13:50:33.465Z,6.35
2023-01-11T13:52:13.483Z,6.39
2023-01-11T13:53:52.971Z,6.36
2023-01-11T13:55:32.128Z,6.34
2023-01-11T13:57:10.128Z,6.32
2023-01-11T13:58:54.644Z,6.33
2023-01-11T14:00:32.480Z,6.32
2023-01-11T14:02:13.656Z,6.31
2023-01-11T14:03:51.976Z,6.30
2023-01-11T14:05:28.918Z,6.26
2023-01-11T14:07:12.977Z,6.22
2023-01-11T14:09:01.886Z,6.21
2023-01-11T14:10:41.046Z,6.19
2023-01-11T14:12:29.258Z,6.20
2023-01-11T14:14:28.921Z,6.19
2023-01-11T14:16:09.100Z,6.15
2023-01-11T14:18:18.489Z,6.15
2023-01-11T14:20:00.484Z,6.11
2023-01-11T14:21:42.560Z,6.13
2023-01-11T14:23:19.228Z,6.13
2023-01-11T14:25:01.503Z,6.11
2023-01-11T14:26:58.423Z,6.13
2023-01-11T14:28:47.660Z,6.15
2023-01-11T14:30:48.475Z,6.12
2023-01-11T14:32:41.564Z,6.12
2023-01-11T14:34:40.647Z,6.13
2023-01-11T14:36:44.115Z,6.12
2023-01-11T14:38:37.165Z,6.08
2023-01-11T14:40:35.048Z,5.93
2023-01-11T14:42:35.670Z,5.91
2023-01-11T14:44:32.973Z,5.83
2023-01-11T14:46:37.875Z,5.75
2023-01-11T14:48:25.932Z,5.66
2023-01-11T14:50:15.676Z,5.62
2023-01-11T14:51:57.644Z,5.56
2023-01-11T14:53:35.268Z,5.53
2023-01-11T14:55:18.039Z,5.51
2023-01-11T14:56:54.997Z,5.51
2023-01-11T14:58:29.299Z,5.48
2023-01-11T15:00:03.323Z,5.46
2023-01-11T15:02:15.941Z,5.46
2023-01-11T15:03:50.581Z,5.37
2023-01-11T15:05:36.892Z,5.34
2023-01-11T15:07:24.675Z,5.32
2023-01-11T15:08:57.856Z,5.29
2023-01-11T15:10:48.233Z,5.27
2023-01-11T15:12:24.639Z,5.15
2023-01-11T15:14:01.557Z,5.17
2023-01-11T15:15:49.581Z,5.13
2023-01-11T15:17:45.285Z,5.07
2023-01-11T15:19:29.230Z,5.15
2023-01-11T15:21:06.085Z,5.05
2023-01-11T15:22:39.844Z,5.12
2023-01-11T15:24:24.855Z,5.07
2023-01-11T15:26:03.339Z,5.05
2023-01-11T15:27:38.835Z,5.06
2023-01-11T15:29:23.769Z,5.07
2023-01-11T15:30:56.920Z,4.98
2023-01-11T15:32:33.281Z,4.93
2023-01-11T15:34:20.084Z,4.86
2023-01-11T15:36:03.699Z,4.81
2023-01-11T15:37:53.575Z,4.83
2023-01-11T15:39:37.676Z,4.83
2023-01-11T15:41:37.963Z,4.82
2023-01-11T15:43:47.364Z,4.83
2023-01-11T15:46:00.432Z,4.86
2023-01-11T15:47:53.911Z,4.85
2023-01-11T15:50:01.433Z,4.89
2023-01-11T15:52:01.680Z,4.91
2023-01-11T15:54:17.111Z,4.93
2023-01-11T15:56:12.351Z,4.93
2023-01-11T15:58:09.053Z,4.96
2023-01-11T16:00:23.759Z,4.92
2023-01-11T16:02:44.378Z,4.97
2023-01-11T16:04:29.605Z,4.94
2023-01-11T16:06:14.773Z,4.92
2023-01-11T16:07:56.470Z,4.87
2023-01-11T16:09:47.899Z,4.91
2023-01-11T16:11:30.650Z,4.87
2023-01-11T16:13:21.095Z,4.86
2023-01-11T16:15:30.710Z,4.89
2023-01-11T16:17:12.664Z,4.84
2023-01-11T16:18:50.473Z,4.84
2023-01-11T16:20:29.538Z,4.84
2023-01-11T16:22:05.908Z,4.80
2023-01-11T16:23:42.522Z,4.87
2023-01-11T16:25:16.707Z,4.77
2023-01-11T16:26:55.431Z,4.79
2023-01-11T16:28:29.740Z,4.70
2023-01-11T16:30:04.244Z,4.68
2023-01-11T16:32:00.140Z,4.66
2023-01-11T16:33:35.210Z,4.70
2023-01-11T16:35:19.223Z,4.69
2023-01-11T16:36:53.875Z,4.67
2023-01-11T16:38:27.393Z,4.66
2023-01-11T16:40:08.023Z,4.65
2023-01-11T16:41:46.917Z,4.67
2023-01-11T16:43:24.442Z,4.70
2023-01-11T16:45:02.840Z,4.71
2023-01-11T16:47:18.648Z,4.71
2023-01-11T16:49:09.774Z,4.68
2023-01-11T16:50:48.882Z,4.67
2023-01-11T16:52:41.296Z,4.68
2023-01-11T16:54:25.484Z,4.68
2023-01-11T16:56:06.186Z,4.64
2023-01-11T16:57:43.471Z,4.62
2023-01-11T16:59:26.491Z,4.57
2023-01-11T17:01:02.212Z,4.58
2023-01-11T17:02:38.886Z,4.58
2023-01-11T17:04:28.315Z,4.60
2023-01-11T17:06:15.388Z,4.56
2023-01-11T17:07:50.268Z,4.62
2023-01-11T17:09:26.099Z,4.64
2023-01-11T17:11:03.779Z,4.66
2023-01-11T17:12:37.512Z,4.61
2023-01-11T17:14:53.740Z,4.52
2023-01-11T17:16:30.519Z,4.45
2023-01-11T17:18:05.115Z,4.56
2023-01-11T17:19:44.497Z,4.58
2023-01-11T17:21:23.930Z,4.59
2023-01-11T17:22:59.929Z,4.42
2023-01-11T17:24:37.230Z,4.54
2023-01-11T17:26:17.199Z,4.49
2023-01-11T17:27:57.643Z,4.48
2023-01-11T17:29:35.631Z,4.44
2023-01-11T17:31:11.671Z,4.49
2023-01-11T17:32:48.791Z,4.48
2023-01-11T17:34:27.661Z,4.46
2023-01-11T17:36:02.231Z,4.52
2023-01-11T17:37:36.296Z,4.56
2023-01-11T17:39:23.647Z,4.58
2023-01-11T17:40:58.300Z,4.61
2023-01-11T17:42:51.691Z,4.65
2023-01-11T17:44:43.093Z,4.68
2023-01-11T17:46:19.739Z,4.69
2023-01-11T17:47:55.493Z,4.60
2023-01-11T17:49:27.986Z,4.67
2023-01-11T17:51:03.051Z,4.67
2023-01-11T17:52:43.826Z,4.67
2023-01-11T17:54:29.799Z,4.68
2023-01-11T17:56:04.908Z,4.71
2023-01-11T17:57:41.018Z,4.70
2023-01-11T17:59:21.134Z,4.73
2023-01-11T18:01:15.138Z,4.71
2023-01-11T18:02:48.876Z,4.79
2023-01-11T18:04:24.081Z,4.80
2023-01-11T18:05:57.633Z,4.82
2023-01-11T18:07:31.727Z,4.84
2023-01-11T18:09:07.097Z,4.86
2023-01-11T18:10:44.678Z,4.87
2023-01-11T18:12:21.774Z,4.84
2023-01-11T18:13:57.771Z,4.93
2023-01-11T18:15:34.732Z,4.91
2023-01-11T18:17:30.735Z,4.88
2023-01-11T18:19:24.541Z,4.90
2023-01-11T18:20:58.534Z,4.91
2023-01-11T18:22:35.562Z,4.93
2023-01-11T18:24:45.942Z,4.99
2023-01-11T18:26:32.291Z,5.00
2023-01-11T18:28:29.370Z,4.93
2023-01-11T18:30:06.564Z,5.02
2023-01-11T18:31:40.785Z,5.00
2023-01-11T18:33:19.794Z,5.00
2023-01-11T18:34:55.458Z,5.01
2023-01-11T18:36:30.108Z,4.95
2023-01-11T18:38:03.810Z,4.89
2023-01-11T18:39:37.133Z,4.91
2023-01-11T18:41:30.418Z,4.87
2023-01-11T18:43:05.573Z,4.88
2023-01-11T18:44:40.553Z,4.89
2023-01-11T18:46:14.026Z,4.89
2023-01-11T18:47:47.404Z,4.85
2023-01-11T18:49:20.068Z,4.84
2023-01-11T18:50:54.977Z,4.84
2023-01-11T18:52:29.885Z,4.84
2023-01-11T18:54:03.453Z,4.87
2023-01-11T18:55:37.108Z,4.90
2023-01-11T18:57:11.089Z,4.96
2023-01-11T18:58:45.984Z,4.99
2023-01-11T19:00:20.370Z,5.01
2023-01-11T19:02:01.497Z,5.05
2023-01-11T19:03:43.679Z,5.07
2023-01-11T19:05:20.106Z,5.08
2023-01-11T19:06:53.474Z,5.08
2023-01-11T19:08:27.198Z,5.08
2023-01-11T19:10:00.776Z,5.07
2023-01-11T19:11:34.393Z,5.09
2023-01-11T19:13:07.836Z,5.08
2023-01-11T19:14:44.034Z,5.00
2023-01-11T19:16:17.234Z,4.98
2023-01-11T19:17:50.694Z,4.94
2023-01-11T19:19:24.276Z,4.98
2023-01-11T19:21:02.383Z,4.98
2023-01-11T19:22:36.360Z,4.97
2023-01-11T19:24:10.028Z,4.89
2023-01-11T19:25:43.765Z,4.82
2023-01-11T19:27:17.693Z,4.83
2023-01-11T19:28:51.083Z,4.81
2023-01-11T19:30:26.399Z,4.76
2023-01-11T19:31:59.925Z,4.71
2023-01-11T19:33:33.340Z,4.74
2023-01-11T19:35:08.349Z,4.74
2023-01-11T19:36:42.274Z,4.83
2023-01-11T19:38:18.485Z,4.89
2023-01-11T19:39:52.298Z,4.93
2023-01-11T19:41:25.693Z,4.94
2023-01-11T19:43:00.095Z,4.98
2023-01-11T19:44:35.324Z,4.96
2023-01-11T19:46:11.628Z,4.98
2023-01-11T19:47:44.945Z,4.98
2023-01-11T19:49:18.561Z,4.98
2023-01-11T19:50:52.114Z,4.97
2023-01-11T19:52:26.105Z,4.91
2023-01-11T19:53:59.476Z,4.92
2023-01-11T19:55:32.741Z,4.97
2023-01-11T19:57:05.218Z,4.98
2023-01-11T19:58:38.803Z,4.99
2023-01-11T20:00:14.468Z,5.02
2023-01-11T20:01:50.201Z,5.02
2023-01-11T20:03:23.588Z,5.02
2023-01-11T20:04:57.119Z,4.99
2023-01-11T20:06:30.268Z,5.05
2023-01-11T20:08:03.387Z,5.07
2023-01-11T20:09:38.158Z,5.05
2023-01-11T20:11:14.073Z,5.06
2023-01-11T20:12:48.594Z,5.04
2023-01-11T20:14:22.041Z,5.01
2023-01-11T20:15:55.292Z,4.98
2023-01-11T20:17:29.941Z,5.01
2023-01-11T20:19:03.098Z,4.97
2023-01-11T20:20:36.539Z,4.95
2023-01-11T20:22:09.701Z,4.99
2023-01-11T20:23:43.045Z,4.99
2023-01-11T20:25:17.749Z,4.98
2023-01-11T20:26:50.873Z,4.95
2023-01-11T20:28:24.566Z,4.96
2023-01-11T20:29:57.925Z,4.95
2023-01-11T20:31:35.100Z,4.96
2023-01-11T20:33:10.353Z,4.96
2023-01-11T20:34:43.648Z,4.94
2023-01-11T20:36:19.195Z,4.91
2023-01-11T20:37:53.928Z,4.91
2023-01-11T20:39:27.770Z,4.91
2023-01-11T20:41:00.987Z,4.89
2023-01-11T20:42:34.847Z,4.88
2023-01-11T20:44:08.963Z,4.89
2023-01-11T20:45:42.216Z,4.94
2023-01-11T20:47:15.490Z,4.97
2023-01-11T20:48:50.900Z,4.93
2023-01-11T20:50:24.050Z,4.93
2023-01-11T20:51:57.683Z,4.88
2023-01-11T20:53:30.993Z,4.84
2023-01-11T20:55:04.396Z,4.83
2023-01-11T20:56:38.704Z,4.79
2023-01-11T20:58:11.889Z,4.71
2023-01-11T20:59:45.045Z,4.73
2023-01-11T21:01:19.169Z,4.73
2023-01-11T21:02:52.638Z,4.71
2023-01-11T21:04:27.162Z,4.68
2023-01-11T21:06:03.831Z,4.65
2023-01-11T21:07:37.464Z,4.64
2023-01-11T21:09:11.908Z,4.56
2023-01-11T21:10:45.057Z,4.53
2023-01-11T21:12:19.614Z,4.52
2023-01-11T21:13:53.991Z,4.48
2023-01-11T21:15:27.174Z,4.48
2023-01-11T21:17:00.407Z,4.44
2023-01-11T21:18:33.490Z,4.40
2023-01-11T21:20:09.425Z,4.41
2023-01-11T21:21:42.897Z,4.35
2023-01-11T21:23:16.793Z,4.34
2023-01-11T21:24:49.904Z,4.34
2023-01-11T21:26:23.856Z,4.30
2023-01-11T21:27:57.781Z,4.28
2023-01-11T21:29:30.920Z,4.30
2023-01-11T21:31:05.433Z,4.31
2023-01-11T21:32:39.257Z,4.29
2023-01-11T21:34:13.054Z,4.29
2023-01-11T21:35:47.572Z,4.25
2023-01-11T21:37:23.930Z,4.25
2023-01-11T21:38:58.568Z,4.26
2023-01-11T21:40:32.063Z,4.22
2023-01-11T21:42:05.483Z,4.29
2023-01-11T21:43:39.295Z,4.31
2023-01-11T21:45:13.196Z,4.33
2023-01-11T21:46:47.118Z,4.30
2023-01-11T21:48:20.329Z,4.34
2023-01-11T21:49:53.427Z,4.39
2023-01-11T21:51:29.846Z,4.41
2023-01-11T21:53:03.067Z,4.42
2023-01-11T21:54:36.217Z,4.39
2023-01-11T21:56:09.986Z,4.41
2023-01-11T21:57:43.306Z,4.41
2023-01-11T21:59:16.625Z,4.34
2023-01-11T22:00:49.923Z,4.40
2023-01-11T22:02:23.031Z,4.39
2023-01-11T22:03:56.604Z,4.41
2023-01-11T22:05:29.804Z,4.40
2023-01-11T22:07:05.154Z,4.37